createdAt,value
2023-04-02T00:00:09.946Z,100977.88
2023-04-02T00:03:04.230Z,100973.04
2023-04-02T00:05:51.736Z,100987.09
2023-04-02T00:08:27.349Z,100990.08
2023-04-02T00:11:00.220Z,100990.07
2023-04-02T00:13:37.480Z,100993.27
2023-04-02T00:16:11.434Z,100998.71
2023-04-02T00:18:47.385Z,100997.48
2023-04-02T00:21:26.645Z,101003.51
2023-04-02T00:23:56.760Z,101002.16
2023-04-02T00:26:30.724Z,101002.28
2023-04-02T00:29:01.286Z,101007.80
2023-04-02T00:31:30.660Z,101009.02
2023-04-02T00:34:01.086Z,101008.59
2023-04-02T00:36:34.166Z,101010.89
2023-04-02T00:39:08.517Z,101009.19
2023-04-02T00:41:39.014Z,101015.53
2023-04-02T00:44:12.745Z,101015.21
2023-04-02T00:46:47.469Z,101020.14
2023-04-02T00:49:35.858Z,101022.70
2023-04-02T00:52:07.990Z,101023.23
2023-04-02T00:54:47.232Z,101026.97
2023-04-02T00:57:21.148Z,101029.98
2023-04-02T00:59:59.847Z,101034.77
2023-04-02T01:02:34.364Z,101039.25
2023-04-02T01:05:22.370Z,101040.23
2023-04-02T01:08:16.602Z,101046.13
2023-04-02T01:11:04.936Z,101042.60
2023-04-02T01:13:58.247Z,101044.41
2023-04-02T01:16:33.142Z,101048.50
2023-04-02T01:19:20.208Z,101049.39
2023-04-02T01:21:53.140Z,101056.34
2023-04-02T01:24:24.862Z,101060.28
2023-04-02T01:26:58.066Z,101064.32
2023-04-02T01:29:34.545Z,101052.84
2023-04-02T01:32:14.943Z,101070.98
2023-04-02T01:34:46.598Z,101072.84
2023-04-02T01:37:32.463Z,101077.35
2023-04-02T01:40:21.637Z,101083.64
2023-04-02T01:43:02.157Z,101078.86
2023-04-02T01:45:31.546Z,101084.16
2023-04-02T01:48:00.165Z,101079.32
2023-04-02T01:50:39.125Z,101087.75
2023-04-02T01:53:10.649Z,101095.91
2023-04-02T01:55:38.814Z,101092.89
2023-04-02T01:58:09.017Z,101096.73
2023-04-02T02:00:45.482Z,101103.63
2023-04-02T02:03:14.512Z,101102.73
2023-04-02T02:05:43.254Z,101105.42
2023-04-02T02:08:40.084Z,101091.06
2023-04-02T02:11:16.485Z,101107.02
2023-04-02T02:13:53.272Z,101108.04
2023-04-02T02:16:22.519Z,101114.56
2023-04-02T02:19:01.943Z,101119.55
2023-04-02T02:21:39.652Z,101122.02
2023-04-02T02:24:27.092Z,101125.14
2023-04-02T02:27:12.489Z,101127.67
2023-04-02T02:29:43.211Z,101131.64
2023-04-02T02:32:13.263Z,101134.33
2023-04-02T02:34:49.124Z,101137.93
2023-04-02T02:37:25.883Z,101142.15
2023-04-02T02:39:58.203Z,101143.61
2023-04-02T02:42:30.943Z,101139.68
2023-04-02T02:45:02.264Z,101139.46
2023-04-02T02:47:35.016Z,101144.17
2023-04-02T02:50:08.651Z,101133.86
2023-04-02T02:52:38.522Z,101147.00
2023-04-02T02:55:17.491Z,101144.04
2023-04-02T02:58:07.169Z,101148.30
2023-04-02T03:00:41.097Z,101151.03
2023-04-02T03:03:31.510Z,101154.66
2023-04-02T03:06:09.430Z,101157.09
2023-04-02T03:08:47.414Z,101161.88
2023-04-02T03:11:36.991Z,101166.90
2023-04-02T03:14:35.082Z,101168.56
2023-04-02T03:17:11.502Z,101173.20
2023-04-02T03:20:08.826Z,101173.13
2023-04-02T03:22:44.370Z,101179.41
2023-04-02T03:25:21.581Z,101183.36
2023-04-02T03:27:53.890Z,101187.32
2023-04-02T03:30:51.766Z,101189.86
2023-04-02T03:33:28.332Z,101191.16
2023-04-02T03:36:06.384Z,101200.34
2023-04-02T03:38:43.730Z,101201.86
2023-04-02T03:41:19.870Z,101187.84
2023-04-02T03:43:53.071Z,101205.89
2023-04-02T03:46:31.322Z,101210.48
2023-04-02T03:49:06.890Z,101212.58
2023-04-02T03:51:42.488Z,101215.58
2023-04-02T03:54:15.324Z,101206.61
2023-04-02T03:56:47.671Z,101226.17
2023-04-02T03:59:29.563Z,101226.86
2023-04-02T04:02:25.661Z,101233.55
2023-04-02T04:04:55.875Z,101241.34
2023-04-02T04:07:35.776Z,101244.05
2023-04-02T04:10:06.663Z,101239.77
2023-04-02T04:12:46.432Z,101251.50
2023-04-02T04:15:26.949Z,101257.23
2023-04-02T04:18:05.006Z,101263.63
2023-04-02T04:20:50.760Z,101261.63
2023-04-02T04:23:32.505Z,101268.36
2023-04-02T04:26:19.996Z,101275.04
2023-04-02T04:29:00.305Z,101274.85
2023-04-02T04:31:39.128Z,101276.63
2023-04-02T04:34:46.878Z,101283.00
2023-04-02T04:37:21.866Z,101288.84
2023-04-02T04:40:02.224Z,101290.13
2023-04-02T04:42:36.016Z,101289.23
2023-04-02T04:45:23.223Z,101295.31
2023-04-02T04:47:58.606Z,101298.04
2023-04-02T04:50:53.233Z,101300.41
2023-04-02T04:53:25.041Z,101304.45
2023-04-02T04:56:03.472Z,101308.88
2023-04-02T04:59:13.823Z,101317.23
2023-04-02T05:01:50.945Z,101321.54
2023-04-02T05:04:29.959Z,101326.80
2023-04-02T05:07:28.575Z,101332.38
2023-04-02T05:10:41.105Z,101338.98
2023-04-02T05:13:18.893Z,101340.48
2023-04-02T05:16:41.922Z,101344.61
2023-04-02T05:19:28.853Z,101346.86
2023-04-02T05:22:09.161Z,101340.64
2023-04-02T05:24:58.635Z,101354.14
2023-04-02T05:27:40.714Z,101360.96
2023-04-02T05:30:32.853Z,101361.77
2023-04-02T05:33:08.065Z,101361.98
2023-04-02T05:35:45.127Z,101363.08
2023-04-02T05:38:22.902Z,101367.54
2023-04-02T05:40:59.915Z,101372.92
2023-04-02T05:43:32.155Z,101372.98
2023-04-02T05:46:08.084Z,101373.50
2023-04-02T05:48:43.415Z,101379.95
2023-04-02T05:51:19.013Z,101387.25
2023-04-02T05:53:53.771Z,101372.38
2023-04-02T05:56:32.130Z,101392.02
2023-04-02T05:59:22.930Z,101396.60
2023-04-02T06:02:08.049Z,101399.54
2023-04-02T06:04:58.734Z,101405.16
2023-04-02T06:07:53.017Z,101408.11
2023-04-02T06:10:26.630Z,101412.67
2023-04-02T06:13:00.367Z,101407.51
2023-04-02T06:15:31.694Z,101424.38
2023-04-02T06:18:28.878Z,101421.43
2023-04-02T06:20:57.999Z,101430.27
2023-04-02T06:23:54.131Z,101430.56
2023-04-02T06:26:27.904Z,101440.86
2023-04-02T06:29:03.164Z,101445.81
2023-04-02T06:31:31.435Z,101445.96
2023-04-02T06:34:00.625Z,101446.70
2023-04-02T06:36:29.769Z,101444.46
2023-04-02T06:39:08.315Z,101437.71
2023-04-02T06:41:37.068Z,101455.99
2023-04-02T06:44:28.313Z,101459.43
2023-04-02T06:47:27.000Z,101464.42
2023-04-02T06:50:19.036Z,101456.68
2023-04-02T06:53:00.956Z,101471.42
2023-04-02T06:55:54.857Z,101475.91
2023-04-02T06:58:27.859Z,101476.96
2023-04-02T07:00:56.419Z,101482.90
2023-04-02T07:03:33.975Z,101485.34
2023-04-02T07:06:20.055Z,101490.70
2023-04-02T07:08:50.345Z,101493.18
2023-04-02T07:11:22.089Z,101494.63
2023-04-02T07:13:52.440Z,101495.58
2023-04-02T07:16:27.140Z,101503.11
2023-04-02T07:18:58.878Z,101508.95
2023-04-02T07:21:28.942Z,101509.52
2023-04-02T07:23:57.905Z,101509.27
2023-04-02T07:26:28.060Z,101517.00
2023-04-02T07:28:56.966Z,101522.05
2023-04-02T07:31:28.012Z,101521.27
2023-04-02T07:34:00.006Z,101527.83
2023-04-02T07:36:29.419Z,101528.98
2023-04-02T07:38:58.732Z,101535.63
2023-04-02T07:41:27.706Z,101538.54
2023-04-02T07:43:56.023Z,101540.78
2023-04-02T07:46:24.688Z,101541.26
2023-04-02T07:48:52.887Z,101544.67
2023-04-02T07:51:23.978Z,101545.27
2023-04-02T07:53:56.292Z,101547.27
2023-04-02T07:56:25.911Z,101550.83
2023-04-02T07:58:54.636Z,101549.02
2023-04-02T08:01:28.239Z,101552.62
2023-04-02T08:03:57.851Z,101555.36
2023-04-02T08:06:26.161Z,101555.09
2023-04-02T08:08:54.721Z,101560.85
2023-04-02T08:11:22.924Z,101572.12
2023-04-02T08:13:52.203Z,101579.33
2023-04-02T08:16:20.516Z,101581.11
2023-04-02T08:18:48.662Z,101576.39
2023-04-02T08:21:17.163Z,101588.30
2023-04-02T08:23:45.696Z,101594.30
2023-04-02T08:26:18.618Z,101600.73
2023-04-02T08:28:46.840Z,101606.16
2023-04-02T08:31:15.139Z,101617.47
2023-04-02T08:33:43.368Z,101612.16
2023-04-02T08:36:17.303Z,101590.69
2023-04-02T08:38:46.288Z,101616.33
2023-04-02T08:41:23.330Z,101617.38
2023-04-02T08:44:00.672Z,101610.77
2023-04-02T08:46:48.451Z,101623.93
2023-04-02T08:49:48.691Z,101621.98
2023-04-02T08:52:27.041Z,101627.18
2023-04-02T08:54:56.407Z,101632.30
2023-04-02T08:57:45.559Z,101638.16
2023-04-02T09:00:39.647Z,101638.13
2023-04-02T09:03:15.663Z,101637.92
2023-04-02T09:05:46.012Z,101644.15
2023-04-02T09:08:20.773Z,101643.60
2023-04-02T09:11:04.860Z,101650.44
2023-04-02T09:13:37.727Z,101659.05
2023-04-02T09:16:16.007Z,101659.52
2023-04-02T09:18:45.434Z,101662.39
2023-04-02T09:21:23.551Z,101661.41
2023-04-02T09:23:51.731Z,101664.88
2023-04-02T09:26:28.859Z,101667.23
2023-04-02T09:29:26.540Z,101671.82
2023-04-02T09:32:09.938Z,101676.60
2023-04-02T09:34:38.045Z,101680.30
2023-04-02T09:37:16.504Z,101686.95
2023-04-02T09:39:44.784Z,101688.60
2023-04-02T09:42:34.275Z,101688.66
2023-04-02T09:45:22.057Z,101692.46
2023-04-02T09:47:52.375Z,101689.50
2023-04-02T09:50:33.785Z,101699.75
2023-04-02T09:53:30.113Z,101703.08
2023-04-02T09:56:10.113Z,101705.05
2023-04-02T09:58:39.109Z,101714.23
2023-04-02T10:01:28.411Z,101715.28
2023-04-02T10:03:57.109Z,101719.27
2023-04-02T10:06:27.592Z,101727.13
2023-04-02T10:08:56.363Z,101730.31
2023-04-02T10:11:46.148Z,101735.65
2023-04-02T10:14:26.983Z,101731.21
2023-04-02T10:17:05.667Z,101725.21
2023-04-02T10:19:42.731Z,101742.02
2023-04-02T10:22:15.877Z,101751.33
2023-04-02T10:24:44.144Z,101743.42
2023-04-02T10:27:37.768Z,101763.33
2023-04-02T10:30:12.008Z,101767.10
2023-04-02T10:33:22.318Z,101764.24
2023-04-02T10:36:09.335Z,101773.05
2023-04-02T10:39:01.952Z,101775.06
2023-04-02T10:42:14.016Z,101773.55
2023-04-02T10:44:56.002Z,101788.92
2023-04-02T10:47:38.181Z,101789.38
2023-04-02T10:50:27.924Z,101792.27
2023-04-02T10:53:32.958Z,101793.22
2023-04-02T10:56:08.874Z,101805.47
2023-04-02T10:58:51.286Z,101803.53
2023-04-02T11:01:24.881Z,101811.58
2023-04-02T11:03:57.858Z,101805.60
2023-04-02T11:06:38.783Z,101811.59
2023-04-02T11:09:23.640Z,101815.40
2023-04-02T11:11:56.235Z,101818.46
2023-04-02T11:14:26.901Z,101814.56
2023-04-02T11:16:59.146Z,101823.16
2023-04-02T11:19:32.756Z,101829.72
2023-04-02T11:22:06.733Z,101838.46
2023-04-02T11:24:38.182Z,101839.92
2023-04-02T11:27:12.342Z,101848.54
2023-04-02T11:29:46.848Z,101845.19
2023-04-02T11:32:25.441Z,101839.67
2023-04-02T11:35:06.324Z,101848.88
2023-04-02T11:37:38.578Z,101855.48
2023-04-02T11:40:13.926Z,101853.85
2023-04-02T11:42:42.273Z,101860.66
2023-04-02T11:45:28.380Z,101868.27
2023-04-02T11:48:03.903Z,101869.65
2023-04-02T11:50:38.797Z,101878.57
2023-04-02T11:53:14.835Z,101880.69
2023-04-02T11:56:05.980Z,101883.65
2023-04-02T11:59:12.209Z,101896.30
2023-04-02T12:02:01.491Z,101894.02
2023-04-02T12:04:57.776Z,101901.63
2023-04-02T12:07:52.521Z,101900.52
2023-04-02T12:10:24.431Z,101900.77
2023-04-02T12:12:52.709Z,101903.20
2023-04-02T12:15:26.502Z,101901.40
2023-04-02T12:18:06.627Z,101903.79
2023-04-02T12:20:35.321Z,101906.77
2023-04-02T12:23:03.824Z,101907.42
2023-04-02T12:25:40.875Z,101910.09
2023-04-02T12:28:18.658Z,101902.93
2023-04-02T12:30:51.859Z,101913.70
2023-04-02T12:33:20.008Z,101921.89
2023-04-02T12:35:50.845Z,101924.33
2023-04-02T12:38:25.300Z,101924.31
2023-04-02T12:40:56.418Z,101924.33
2023-04-02T12:43:29.334Z,101928.14
2023-04-02T12:46:04.296Z,101933.89
2023-04-02T12:48:34.919Z,101941.61
2023-04-02T12:51:04.473Z,101938.96
2023-04-02T12:53:36.540Z,101948.23
2023-04-02T12:56:06.260Z,101954.20
2023-04-02T12:58:42.900Z,101957.08
2023-04-02T13:01:18.500Z,101962.80
2023-04-02T13:04:15.076Z,101962.55
2023-04-02T13:06:57.536Z,101961.47
2023-04-02T13:09:28.831Z,101969.56
2023-04-02T13:11:57.930Z,101962.19
2023-04-02T13:14:26.729Z,101969.60
2023-04-02T13:16:56.026Z,101965.32
2023-04-02T13:19:33.513Z,101973.92
2023-04-02T13:22:04.041Z,101981.52
2023-04-02T13:24:33.764Z,101975.68
2023-04-02T13:27:03.674Z,101992.48
2023-04-02T13:29:34.394Z,101986.09
2023-04-02T13:32:08.044Z,101993.67
2023-04-02T13:34:36.073Z,101992.04
2023-04-02T13:37:04.296Z,101993.00
2023-04-02T13:39:32.507Z,102001.55
2023-04-02T13:42:03.344Z,102008.05
2023-04-02T13:44:33.993Z,102010.97
2023-04-02T13:47:02.580Z,102013.20
2023-04-02T13:49:31.882Z,102013.48
2023-04-02T13:52:05.493Z,102020.58
2023-04-02T13:54:39.410Z,102023.02
2023-04-02T13:57:07.650Z,102026.79
2023-04-02T13:59:36.164Z,102028.17
2023-04-02T14:02:09.158Z,102032.02
2023-04-02T14:04:50.657Z,102030.98
2023-04-02T14:07:46.414Z,102037.86
2023-04-02T14:10:43.544Z,102041.95
2023-04-02T14:13:45.927Z,102041.78
2023-04-02T14:16:39.273Z,102036.05
2023-04-02T14:19:28.825Z,102054.42
2023-04-02T14:22:02.631Z,102052.84
2023-04-02T14:24:54.765Z,102056.92
2023-04-02T14:27:45.480Z,102058.80
2023-04-02T14:30:22.219Z,102060.89
2023-04-02T14:32:59.520Z,102061.84
2023-04-02T14:36:08.559Z,102064.70
2023-04-02T14:38:38.066Z,102067.45
2023-04-02T14:41:38.563Z,102064.72
2023-04-02T14:44:09.335Z,102069.92
2023-04-02T14:46:39.084Z,102072.27
2023-04-02T14:49:20.947Z,102070.35
2023-04-02T14:51:54.980Z,102064.25
2023-04-02T14:54:29.073Z,102075.71
2023-04-02T14:57:21.721Z,102086.40
2023-04-02T15:00:00.628Z,102085.58
2023-04-02T15:02:41.758Z,102086.02
2023-04-02T15:05:17.827Z,102095.84
2023-04-02T15:07:52.502Z,102103.58
2023-04-02T15:10:29.864Z,102102.72
2023-04-02T15:13:00.197Z,102105.16
2023-04-02T15:15:40.478Z,102104.48
2023-04-02T15:18:15.418Z,102118.31
2023-04-02T15:21:09.673Z,102120.80
2023-04-02T15:24:02.476Z,102116.16
2023-04-02T15:27:38.708Z,102131.30
2023-04-02T15:30:13.016Z,102137.62
2023-04-02T15:32:43.492Z,102137.58
2023-04-02T15:35:32.872Z,102143.21
2023-04-02T15:38:26.140Z,102145.93
2023-04-02T15:41:23.711Z,102154.55
2023-04-02T15:44:10.084Z,102160.46
2023-04-02T15:47:01.490Z,102161.69
2023-04-02T15:49:48.121Z,102171.36
2023-04-02T15:52:34.212Z,102170.15
2023-04-02T15:55:37.731Z,102178.50
2023-04-02T15:58:14.387Z,102181.42
2023-04-02T16:01:10.527Z,102181.91
2023-04-02T16:03:57.129Z,102198.87
2023-04-02T16:06:40.520Z,102201.02
2023-04-02T16:09:21.132Z,102204.98
2023-04-02T16:11:57.391Z,102212.48
2023-04-02T16:14:29.427Z,102218.45
2023-04-02T16:17:17.674Z,102221.64
2023-04-02T16:20:10.629Z,102230.55
2023-04-02T16:22:53.425Z,102240.12
2023-04-02T16:25:34.563Z,102238.77
2023-04-02T16:28:19.476Z,102239.22
2023-04-02T16:30:56.161Z,102248.94
2023-04-02T16:34:06.119Z,102251.55
2023-04-02T16:36:43.214Z,102257.20
2023-04-02T16:39:16.699Z,102264.83
2023-04-02T16:41:44.695Z,102267.93
2023-04-02T16:44:57.722Z,102272.52
2023-04-02T16:47:47.715Z,102271.09
2023-04-02T16:50:30.975Z,102282.45
2023-04-02T16:53:17.874Z,102287.77
2023-04-02T16:56:04.850Z,102298.70
2023-04-02T16:59:11.009Z,102308.98
2023-04-02T17:01:57.462Z,102312.98
2023-04-02T17:04:48.736Z,102321.20
2023-04-02T17:07:29.192Z,102327.10
2023-04-02T17:10:18.868Z,102330.27
2023-04-02T17:12:53.125Z,102330.56
2023-04-02T17:15:28.628Z,102337.02
2023-04-02T17:18:02.075Z,102324.81
2023-04-02T17:20:30.457Z,102340.55
2023-04-02T17:22:59.111Z,102331.29
2023-04-02T17:25:34.087Z,102349.46
2023-04-02T17:28:04.126Z,102356.27
2023-04-02T17:30:38.384Z,102350.34
2023-04-02T17:33:19.476Z,102361.52
2023-04-02T17:36:00.140Z,102363.07
2023-04-02T17:38:47.243Z,102368.89
2023-04-02T17:41:30.653Z,102374.83
2023-04-02T17:44:19.588Z,102377.92
2023-04-02T17:46:59.947Z,102382.88
2023-04-02T17:49:41.860Z,102388.83
2023-04-02T17:52:22.213Z,102390.16
2023-04-02T17:55:27.942Z,102387.91
2023-04-02T17:58:07.968Z,102394.58
2023-04-02T18:01:06.796Z,102407.21
2023-04-02T18:03:34.917Z,102406.54
2023-04-02T18:06:25.089Z,102406.85
2023-04-02T18:08:53.104Z,102411.58
2023-04-02T18:12:11.768Z,102413.13
2023-04-02T18:14:52.449Z,102413.06
2023-04-02T18:17:46.200Z,102419.15
2023-04-02T18:20:20.367Z,102423.85
2023-04-02T18:23:16.543Z,102429.20
2023-04-02T18:26:18.813Z,102424.98
2023-04-02T18:28:55.868Z,102432.73
2023-04-02T18:31:41.025Z,102440.27
2023-04-02T18:34:21.231Z,102432.83
2023-04-02T18:37:08.142Z,102443.55
2023-04-02T18:39:54.407Z,102448.50
2023-04-02T18:42:44.905Z,102444.44
2023-04-02T18:45:23.038Z,102436.73
2023-04-02T18:47:59.976Z,102450.30
2023-04-02T18:50:35.395Z,102456.73
2023-04-02T18:53:16.751Z,102458.23
2023-04-02T18:56:08.223Z,102465.50
2023-04-02T18:58:49.574Z,102464.55
2023-04-02T19:01:26.250Z,102471.80
2023-04-02T19:04:12.789Z,102471.41
2023-04-02T19:06:57.120Z,102476.96
2023-04-02T19:09:38.502Z,102476.54
2023-04-02T19:12:21.326Z,102478.80
2023-04-02T19:14:51.131Z,102469.60
2023-04-02T19:17:31.745Z,102482.92
2023-04-02T19:20:27.896Z,102486.67
2023-04-02T19:23:02.239Z,102489.53
2023-04-02T19:25:47.150Z,102486.48
2023-04-02T19:28:44.453Z,102494.46
2023-04-02T19:31:32.948Z,102495.33
2023-04-02T19:34:19.863Z,102498.14
2023-04-02T19:37:01.471Z,102496.06
2023-04-02T19:39:32.337Z,102498.02
2023-04-02T19:42:24.917Z,102502.27
2023-04-02T19:44:54.217Z,102499.38
2023-04-02T19:47:24.679Z,102501.95
2023-04-02T19:49:52.994Z,102497.11
2023-04-02T19:52:21.316Z,102506.53
2023-04-02T19:54:49.446Z,102510.55
2023-04-02T19:57:17.809Z,102512.02
2023-04-02T19:59:46.116Z,102518.00
2023-04-02T20:02:14.350Z,102519.31
2023-04-02T20:04:42.661Z,102524.15
2023-04-02T20:07:10.867Z,102525.12
2023-04-02T20:09:39.142Z,102527.36
2023-04-02T20:12:07.317Z,102531.91
2023-04-02T20:14:35.472Z,102533.67
2023-04-02T20:17:03.762Z,102537.80
2023-04-02T20:19:32.097Z,102541.65
2023-04-02T20:22:00.189Z,102543.51
2023-04-02T20:24:28.424Z,102551.26
2023-04-02T20:26:56.548Z,102550.09
2023-04-02T20:29:28.126Z,102553.05
2023-04-02T20:31:56.595Z,102555.02
2023-04-02T20:34:25.492Z,102556.45
2023-04-02T20:36:53.849Z,102562.27
2023-04-02T20:39:22.117Z,102545.82
2023-04-02T20:41:50.225Z,102560.45
2023-04-02T20:44:18.316Z,102564.10
2023-04-02T20:46:46.426Z,102564.75
2023-04-02T20:49:14.618Z,102555.27
2023-04-02T20:51:42.835Z,102571.25
2023-04-02T20:54:10.937Z,102557.46
2023-04-02T20:56:39.172Z,102558.00
2023-04-02T20:59:07.328Z,102571.67
2023-04-02T21:01:36.554Z,102563.51
2023-04-02T21:04:05.028Z,102572.61
2023-04-02T21:06:36.846Z,102576.39
2023-04-02T21:09:08.608Z,102579.24
2023-04-02T21:11:37.129Z,102578.10
2023-04-02T21:14:05.597Z,102580.19
2023-04-02T21:16:33.959Z,102564.40
2023-04-02T21:19:07.865Z,102587.48
2023-04-02T21:21:38.375Z,102591.30
2023-04-02T21:24:08.548Z,102592.77
2023-04-02T21:26:39.330Z,102596.47
2023-04-02T21:29:08.042Z,102595.42
2023-04-02T21:31:38.625Z,102594.25
2023-04-02T21:34:09.331Z,102596.80
2023-04-02T21:36:42.119Z,102594.08
2023-04-02T21:39:13.135Z,102595.02
2023-04-02T21:41:43.978Z,102596.64
2023-04-02T21:44:16.850Z,102584.54
2023-04-02T21:46:45.888Z,102599.93
2023-04-02T21:49:17.273Z,102581.58
2023-04-02T21:51:46.804Z,102601.27
2023-04-02T21:54:15.806Z,102604.30
2023-04-02T21:56:45.979Z,102611.16
2023-04-02T21:59:16.711Z,102614.71
2023-04-02T22:01:48.396Z,102617.56
2023-04-02T22:04:25.045Z,102619.25
2023-04-02T22:06:53.535Z,102620.55
2023-04-02T22:09:24.381Z,102618.45
2023-04-02T22:11:56.233Z,102622.27
2023-04-02T22:14:24.810Z,102620.77
2023-04-02T22:16:53.146Z,102623.25
2023-04-02T22:19:21.540Z,102625.27
2023-04-02T22:21:49.950Z,102626.37
2023-04-02T22:24:19.076Z,102624.70
2023-04-02T22:26:47.335Z,102624.31
2023-04-02T22:29:16.510Z,102624.23
2023-04-02T22:31:44.910Z,102616.27
2023-04-02T22:34:13.206Z,102627.83
2023-04-02T22:36:41.451Z,102623.45
2023-04-02T22:39:12.386Z,102635.42
2023-04-02T22:41:41.168Z,102638.64
2023-04-02T22:44:15.200Z,102643.06
2023-04-02T22:46:43.463Z,102645.89
2023-04-02T22:49:11.880Z,102644.05
2023-04-02T22:51:40.089Z,102647.05
2023-04-02T22:54:08.288Z,102646.64
2023-04-02T22:56:37.686Z,102649.22
2023-04-02T22:59:06.138Z,102647.55
2023-04-02T23:01:36.220Z,102646.59
2023-04-02T23:04:05.522Z,102646.34
2023-04-02T23:06:33.927Z,102646.27
2023-04-02T23:09:02.124Z,102647.27
2023-04-02T23:11:30.432Z,102649.88
2023-04-02T23:13:59.227Z,102652.90
2023-04-02T23:16:29.316Z,102651.46
2023-04-02T23:18:58.179Z,102648.20
2023-04-02T23:21:26.792Z,102651.64
2023-04-02T23:23:55.580Z,102658.52
2023-04-02T23:26:31.568Z,102655.92
2023-04-02T23:29:00.903Z,102655.48
2023-04-02T23:31:29.982Z,102664.62
2023-04-02T23:33:58.804Z,102664.33
2023-04-02T23:36:32.544Z,102662.21
2023-04-02T23:39:04.951Z,102663.15
2023-04-02T23:41:33.083Z,102666.50
2023-04-02T23:44:01.678Z,102670.82
2023-04-02T23:46:31.580Z,102669.84
2023-04-02T23:49:00.685Z,102669.95
2023-04-02T23:51:30.154Z,102672.59
2023-04-02T23:53:58.609Z,102677.27
2023-04-02T23:56:27.266Z,102675.80
2023-04-02T23:58:55.481Z,102680.19
